createdAt,value
2018-02-26T00:00:44.840Z,0.00
2018-02-26T00:01:44.848Z,0.00
2018-02-26T00:02:44.855Z,0.00
2018-02-26T00:03:44.855Z,0.00
2018-02-26T00:04:44.874Z,0.00
2018-02-26T00:05:44.859Z,0.00
2018-02-26T00:06:44.878Z,0.00
2018-02-26T00:07:44.879Z,0.00
2018-02-26T00:08:44.893Z,0.00
2018-02-26T00:09:44.888Z,0.00
2018-02-26T00:10:44.896Z,0.00
2018-02-26T00:11:44.917Z,0.00
2018-02-26T00:12:44.909Z,0.00
2018-02-26T00:13:44.914Z,0.00
2018-02-26T00:14:44.919Z,0.00
2018-02-26T00:15:44.927Z,0.00
2018-02-26T00:16:44.923Z,0.00
2018-02-26T00:17:44.928Z,0.00
2018-02-26T00:18:44.936Z,0.00
2018-02-26T00:19:44.958Z,0.00
2018-02-26T00:20:44.944Z,0.00
2018-02-26T00:21:44.956Z,0.00
2018-02-26T00:22:44.972Z,0.00
2018-02-26T00:23:44.968Z,0.00
2018-02-26T00:24:44.976Z,0.00
2018-02-26T00:25:44.980Z,0.00
2018-02-26T00:26:44.990Z,0.00
2018-02-26T00:27:44.986Z,0.00
2018-02-26T00:28:44.986Z,0.00
2018-02-26T00:29:45.000Z,0.00
2018-02-26T00:30:45.009Z,0.00
2018-02-26T00:31:45.012Z,0.00
2018-02-26T00:32:45.022Z,0.00
2018-02-26T00:33:45.022Z,0.00
2018-02-26T00:34:45.029Z,0.00
2018-02-26T00:35:45.030Z,0.00
2018-02-26T00:36:45.032Z,0.00
2018-02-26T00:37:45.053Z,0.00
2018-02-26T00:38:45.049Z,0.00
2018-02-26T00:39:45.049Z,0.00
2018-02-26T00:40:45.073Z,0.00
2018-02-26T00:41:45.064Z,0.00
2018-02-26T00:42:45.070Z,0.00
2018-02-26T00:43:45.074Z,0.00
2018-02-26T00:44:45.082Z,0.00
2018-02-26T00:45:45.095Z,0.00
2018-02-26T00:46:45.095Z,0.00
2018-02-26T00:47:45.101Z,0.00
2018-02-26T00:48:45.105Z,0.00
2018-02-26T00:49:45.097Z,0.00
2018-02-26T00:50:45.108Z,0.00
2018-02-26T00:51:45.127Z,0.00
2018-02-26T00:52:45.121Z,0.00
2018-02-26T00:53:45.129Z,0.00
2018-02-26T00:54:45.140Z,0.00
2018-02-26T00:55:45.137Z,0.00
2018-02-26T00:56:45.142Z,0.00
2018-02-26T00:57:45.146Z,0.00
2018-02-26T00:58:45.156Z,0.00
2018-02-26T00:59:45.161Z,0.00
2018-02-26T01:00:45.167Z,0.00
2018-02-26T01:01:45.171Z,0.00
2018-02-26T01:02:45.168Z,0.00
2018-02-26T01:03:45.192Z,0.00
2018-02-26T01:04:45.192Z,0.00
2018-02-26T01:05:45.202Z,0.00
2018-02-26T01:06:45.194Z,0.00
2018-02-26T01:07:45.201Z,0.00
2018-02-26T01:08:45.208Z,0.00
2018-02-26T01:09:45.206Z,0.00
2018-02-26T01:10:45.213Z,0.00
2018-02-26T01:11:45.218Z,0.00
2018-02-26T01:12:45.226Z,0.00
2018-02-26T01:13:45.226Z,0.00
2018-02-26T01:14:45.235Z,0.00
2018-02-26T01:15:45.258Z,0.00
2018-02-26T01:16:45.247Z,0.00
2018-02-26T01:17:45.252Z,0.00
2018-02-26T01:18:45.270Z,0.00
2018-02-26T01:19:45.259Z,0.00
2018-02-26T01:20:45.280Z,0.00
2018-02-26T01:21:45.279Z,0.00
2018-02-26T01:22:45.269Z,0.00
2018-02-26T01:23:45.288Z,0.00
2018-02-26T01:24:45.294Z,0.00
2018-02-26T01:25:45.297Z,0.00
2018-02-26T01:26:45.294Z,0.00
2018-02-26T01:27:45.298Z,0.00
2018-02-26T01:28:45.311Z,0.00
2018-02-26T01:29:45.305Z,0.00
2018-02-26T01:30:45.322Z,0.00
2018-02-26T01:31:45.331Z,0.00
2018-02-26T01:32:45.321Z,0.00
2018-02-26T01:33:45.333Z,0.00
2018-02-26T01:34:45.343Z,0.00
2018-02-26T01:35:45.340Z,0.00
2018-02-26T01:36:45.354Z,0.00
2018-02-26T01:37:45.351Z,0.00
2018-02-26T01:38:45.367Z,0.00
2018-02-26T01:39:45.363Z,0.00
2018-02-26T01:40:45.367Z,0.00
2018-02-26T01:41:45.374Z,0.00
2018-02-26T01:42:45.376Z,0.00
2018-02-26T01:43:45.386Z,0.00
2018-02-26T01:44:45.383Z,0.00
2018-02-26T01:45:45.386Z,0.00
2018-02-26T01:46:45.407Z,0.00
2018-02-26T01:47:45.397Z,0.00
2018-02-26T01:48:45.399Z,0.00
2018-02-26T01:49:45.410Z,0.00
2018-02-26T01:50:45.408Z,0.00
2018-02-26T01:51:45.421Z,0.00
2018-02-26T01:52:45.430Z,0.00
2018-02-26T01:53:45.432Z,0.00
2018-02-26T01:54:45.436Z,0.00
2018-02-26T01:55:45.441Z,0.00
2018-02-26T01:56:45.451Z,0.00
2018-02-26T01:57:45.444Z,0.00
2018-02-26T01:58:45.460Z,0.00
2018-02-26T01:59:45.458Z,0.00
2018-02-26T02:00:45.458Z,0.00
2018-02-26T02:01:45.464Z,0.00
2018-02-26T02:02:45.482Z,0.00
2018-02-26T02:03:45.473Z,0.00
2018-02-26T02:04:45.479Z,0.00
2018-02-26T02:05:45.498Z,0.00
2018-02-26T02:06:45.495Z,0.00
2018-02-26T02:07:45.494Z,0.00
2018-02-26T02:08:45.505Z,0.00
2018-02-26T02:09:45.497Z,0.00
2018-02-26T02:10:45.507Z,0.00
2018-02-26T02:11:45.520Z,0.00
2018-02-26T02:12:45.514Z,0.00
2018-02-26T02:13:45.528Z,0.00
2018-02-26T02:14:45.542Z,0.00
2018-02-26T02:15:45.528Z,0.00
2018-02-26T02:16:45.536Z,0.00
2018-02-26T02:17:45.554Z,0.00
2018-02-26T02:18:45.548Z,0.00
2018-02-26T02:19:45.565Z,0.00
2018-02-26T02:20:45.568Z,0.00
2018-02-26T02:21:45.556Z,0.00
2018-02-26T02:22:45.562Z,0.00
2018-02-26T02:23:45.584Z,0.00
2018-02-26T02:24:45.577Z,0.00
2018-02-26T02:25:45.584Z,0.00
2018-02-26T02:26:45.592Z,0.00
2018-02-26T02:27:45.584Z,0.00
2018-02-26T02:28:45.594Z,0.00
2018-02-26T02:29:45.609Z,0.00
2018-02-26T02:30:45.596Z,0.00
2018-02-26T02:31:45.611Z,0.00
2018-02-26T02:32:45.619Z,0.00
2018-02-26T02:33:45.624Z,0.00
2018-02-26T02:34:45.634Z,0.00
2018-02-26T02:35:45.625Z,0.00
2018-02-26T02:36:45.632Z,0.00
2018-02-26T02:37:45.635Z,0.00
2018-02-26T02:38:45.640Z,0.00
2018-02-26T02:39:45.651Z,0.00
2018-02-26T02:40:45.647Z,0.00
2018-02-26T02:41:45.649Z,0.00
2018-02-26T02:42:45.659Z,0.00
2018-02-26T02:43:45.662Z,0.00
2018-02-26T02:44:45.667Z,0.00
2018-02-26T02:45:45.669Z,0.00
2018-02-26T02:46:45.680Z,0.00
2018-02-26T02:47:45.679Z,0.00
2018-02-26T02:48:45.683Z,0.00
2018-02-26T02:49:45.704Z,0.00
2018-02-26T02:50:45.699Z,0.00
2018-02-26T02:51:45.698Z,0.00
2018-02-26T02:52:45.712Z,0.00
2018-02-26T02:53:45.704Z,0.00
2018-02-26T02:54:45.710Z,0.00
2018-02-26T02:55:45.723Z,0.00
2018-02-26T02:56:45.726Z,0.00
2018-02-26T02:57:45.731Z,0.00
2018-02-26T02:58:45.728Z,0.00
2018-02-26T02:59:45.735Z,0.00
2018-02-26T03:00:45.752Z,0.00
2018-02-26T03:01:45.736Z,0.00
2018-02-26T03:02:45.743Z,0.00
2018-02-26T03:03:45.757Z,0.00
2018-02-26T03:04:45.749Z,0.00
2018-02-26T03:05:45.761Z,0.00
2018-02-26T03:06:45.773Z,0.00
2018-02-26T03:07:45.764Z,0.00
2018-02-26T03:08:45.781Z,0.00
2018-02-26T03:09:45.782Z,0.00
2018-02-26T03:10:45.780Z,0.00
2018-02-26T03:11:45.799Z,0.00
2018-02-26T03:12:45.803Z,0.00
2018-02-26T03:13:45.796Z,0.00
2018-02-26T03:14:45.806Z,0.00
2018-02-26T03:15:45.798Z,0.00
2018-02-26T03:16:45.816Z,0.00
2018-02-26T03:17:45.816Z,0.00
2018-02-26T03:18:45.817Z,0.00
2018-02-26T03:19:45.828Z,0.00
2018-02-26T03:20:45.839Z,0.00
2018-02-26T03:21:45.830Z,0.00
2018-02-26T03:22:45.839Z,0.00
2018-02-26T03:23:45.843Z,0.00
2018-02-26T03:24:45.845Z,0.00
2018-02-26T03:25:45.851Z,0.00
2018-02-26T03:26:45.863Z,0.00
2018-02-26T03:27:45.871Z,0.00
2018-02-26T03:28:45.871Z,0.00
2018-02-26T03:29:45.877Z,0.00
2018-02-26T03:30:45.881Z,0.00
2018-02-26T03:31:45.899Z,0.00
2018-02-26T03:32:45.896Z,0.00
2018-02-26T03:33:45.884Z,0.00
2018-02-26T03:34:45.892Z,0.00
2018-02-26T03:35:45.905Z,0.00
2018-02-26T03:36:45.904Z,0.00
2018-02-26T03:37:45.918Z,0.00
2018-02-26T03:38:45.929Z,0.00
2018-02-26T03:39:46.231Z,0.00
2018-02-26T03:40:45.932Z,0.00
2018-02-26T03:41:45.928Z,0.00
2018-02-26T03:42:45.925Z,0.00
2018-02-26T03:43:45.938Z,0.00
2018-02-26T03:44:45.948Z,0.00
2018-02-26T03:45:45.957Z,0.00
2018-02-26T03:46:45.954Z,0.00
2018-02-26T03:47:45.958Z,0.00
2018-02-26T03:48:45.970Z,0.00
2018-02-26T03:49:45.963Z,0.00
2018-02-26T03:50:45.979Z,0.00
2018-02-26T03:51:45.983Z,0.00
2018-02-26T03:52:45.995Z,0.00
2018-02-26T03:53:45.998Z,0.00
2018-02-26T03:54:45.997Z,0.00
2018-02-26T03:55:46.002Z,0.00
2018-02-26T03:56:46.006Z,0.00
2018-02-26T03:57:46.015Z,0.00
2018-02-26T03:58:46.026Z,0.00
2018-02-26T03:59:46.023Z,0.00
2018-02-26T04:00:46.022Z,0.00
2018-02-26T04:01:46.034Z,0.00
2018-02-26T04:02:46.045Z,0.00
2018-02-26T04:03:46.045Z,0.00
2018-02-26T04:04:46.052Z,0.00
2018-02-26T04:05:46.048Z,0.00
2018-02-26T04:06:46.059Z,0.00
2018-02-26T04:07:46.064Z,0.00
2018-02-26T04:08:46.058Z,0.00
2018-02-26T04:09:46.070Z,0.00
2018-02-26T04:10:46.079Z,0.00
2018-02-26T04:11:46.072Z,0.00
2018-02-26T04:12:46.090Z,0.00
2018-02-26T04:13:46.087Z,0.00
2018-02-26T04:14:46.092Z,0.00
2018-02-26T04:15:46.097Z,0.00
2018-02-26T04:16:46.113Z,0.00
2018-02-26T04:17:46.121Z,0.00
2018-02-26T04:18:46.114Z,0.00
2018-02-26T04:19:46.118Z,0.00
2018-02-26T04:20:46.129Z,0.00
2018-02-26T04:21:46.123Z,0.00
2018-02-26T04:22:46.131Z,0.00
2018-02-26T04:23:46.151Z,0.00
2018-02-26T04:24:46.144Z,0.00
2018-02-26T04:25:46.146Z,0.00
2018-02-26T04:26:46.155Z,0.00
2018-02-26T04:27:46.174Z,0.00
2018-02-26T04:28:46.157Z,0.00
2018-02-26T04:29:46.180Z,0.00
2018-02-26T04:30:46.181Z,0.00
2018-02-26T04:31:46.180Z,0.00
2018-02-26T04:32:46.188Z,0.00
2018-02-26T04:33:46.192Z,0.00
2018-02-26T04:34:46.188Z,0.00
2018-02-26T04:35:46.206Z,0.00
2018-02-26T04:36:46.218Z,0.00
2018-02-26T04:37:46.227Z,0.00
2018-02-26T04:38:46.215Z,0.00
2018-02-26T04:39:46.219Z,0.00
2018-02-26T04:40:46.231Z,0.00
2018-02-26T04:41:46.233Z,0.00
2018-02-26T04:42:46.233Z,0.00
2018-02-26T04:43:46.246Z,0.00
2018-02-26T04:44:46.263Z,0.00
2018-02-26T04:45:46.256Z,0.00
2018-02-26T04:46:46.269Z,0.00
2018-02-26T04:47:46.266Z,0.00
2018-02-26T04:48:46.265Z,0.00
2018-02-26T04:49:46.269Z,0.00
2018-02-26T04:50:46.279Z,0.00
2018-02-26T04:51:46.300Z,0.00
2018-02-26T04:52:46.298Z,0.00
2018-02-26T04:53:46.300Z,0.00
2018-02-26T04:54:46.315Z,0.00
2018-02-26T04:55:46.302Z,0.00
2018-02-26T04:56:46.313Z,0.00
2018-02-26T04:57:46.326Z,0.00
2018-02-26T04:58:46.332Z,0.00
2018-02-26T04:59:46.327Z,0.00
2018-02-26T05:00:46.340Z,0.00
2018-02-26T05:01:46.367Z,0.00
2018-02-26T05:02:46.361Z,0.00
2018-02-26T05:03:46.344Z,0.00
2018-02-26T05:04:46.364Z,0.00
2018-02-26T05:05:46.377Z,0.00
2018-02-26T05:06:46.361Z,0.00
2018-02-26T05:07:46.374Z,0.00
2018-02-26T05:08:46.377Z,0.00
2018-02-26T05:09:46.391Z,0.00
2018-02-26T05:10:46.386Z,0.00
2018-02-26T05:11:46.398Z,0.00
2018-02-26T05:12:46.408Z,0.00
2018-02-26T05:13:46.409Z,0.00
2018-02-26T05:14:46.414Z,0.00
2018-02-26T05:15:46.418Z,0.00
2018-02-26T05:16:46.430Z,0.00
2018-02-26T05:17:46.434Z,0.00
2018-02-26T05:18:46.438Z,0.00
2018-02-26T05:19:46.441Z,0.00
2018-02-26T05:20:46.455Z,0.00
2018-02-26T05:21:46.442Z,0.00
2018-02-26T05:22:46.450Z,0.00
2018-02-26T05:23:46.465Z,0.00
2018-02-26T05:24:46.475Z,0.00
2018-02-26T05:25:46.471Z,0.00
2018-02-26T05:26:46.480Z,0.00
2018-02-26T05:27:46.484Z,4.00
2018-02-26T05:28:46.483Z,0.00
2018-02-26T05:29:46.503Z,0.00
2018-02-26T05:30:46.505Z,4.00
2018-02-26T05:31:46.510Z,0.00
2018-02-26T05:32:46.509Z,4.00
2018-02-26T05:33:46.518Z,4.00
2018-02-26T05:34:46.526Z,8.00
2018-02-26T05:35:46.520Z,8.00
2018-02-26T05:36:46.530Z,8.00
2018-02-26T05:37:46.535Z,8.00
2018-02-26T05:38:46.544Z,12.00
2018-02-26T05:39:46.551Z,12.00
2018-02-26T05:40:46.550Z,16.00
2018-02-26T05:41:46.571Z,20.00
2018-02-26T05:42:46.579Z,24.00
2018-02-26T05:43:46.565Z,28.00
2018-02-26T05:44:46.576Z,36.00
2018-02-26T05:45:46.588Z,40.00
2018-02-26T05:46:46.580Z,44.00
2018-02-26T05:47:46.598Z,52.00
2018-02-26T05:48:46.602Z,60.00
2018-02-26T05:49:46.609Z,72.00
2018-02-26T05:50:46.603Z,80.00
2018-02-26T05:51:46.628Z,92.00
2018-02-26T05:52:46.624Z,104.00
2018-02-26T05:53:46.616Z,120.00
2018-02-26T05:54:46.625Z,132.00
2018-02-26T05:55:46.639Z,148.00
2018-02-26T05:56:46.633Z,168.00
2018-02-26T05:57:46.647Z,184.00
2018-02-26T05:58:46.658Z,204.00
2018-02-26T05:59:46.681Z,220.00
2018-02-26T06:00:46.655Z,244.00
2018-02-26T06:01:46.668Z,268.00
2018-02-26T06:02:46.669Z,296.00
2018-02-26T06:03:46.669Z,320.00
2018-02-26T06:04:46.677Z,348.00
2018-02-26T06:05:46.690Z,376.00
2018-02-26T06:06:46.692Z,408.00
2018-02-26T06:07:46.690Z,440.00
2018-02-26T06:08:46.708Z,472.00
2018-02-26T06:09:46.704Z,504.00
2018-02-26T06:10:46.709Z,540.00
2018-02-26T06:11:46.723Z,584.00
2018-02-26T06:12:46.717Z,620.00
2018-02-26T06:13:46.724Z,660.00
2018-02-26T06:14:46.732Z,700.00
2018-02-26T06:15:46.726Z,736.00
2018-02-26T06:16:46.738Z,780.00
2018-02-26T06:17:46.741Z,828.00
2018-02-26T06:18:46.739Z,872.00
2018-02-26T06:19:46.751Z,904.00
2018-02-26T06:20:46.753Z,952.00
2018-02-26T06:21:46.776Z,992.00
2018-02-26T06:22:46.764Z,1032.00
2018-02-26T06:23:46.789Z,1076.00
2018-02-26T06:24:46.779Z,1112.00
2018-02-26T06:25:46.780Z,1160.00
2018-02-26T06:26:46.785Z,1204.00
2018-02-26T06:27:46.788Z,1240.00
2018-02-26T06:28:46.793Z,1280.00
2018-02-26T06:29:46.809Z,1320.00
2018-02-26T06:30:46.797Z,1360.00
2018-02-26T06:31:46.803Z,1400.00
2018-02-26T06:32:46.809Z,1448.00
2018-02-26T06:33:46.822Z,1488.00
2018-02-26T06:34:46.823Z,1524.00
2018-02-26T06:35:46.824Z,1560.00
2018-02-26T06:36:46.840Z,1584.00
2018-02-26T06:37:46.837Z,1632.00
2018-02-26T06:38:46.891Z,1676.00
2018-02-26T06:39:46.846Z,1716.00
2018-02-26T06:40:46.851Z,1752.00
2018-02-26T06:41:46.869Z,1780.00
2018-02-26T06:42:46.854Z,1812.00
2018-02-26T06:43:46.866Z,1840.00
2018-02-26T06:44:46.873Z,1876.00
2018-02-26T06:45:46.866Z,1928.00
2018-02-26T06:46:46.875Z,1956.00
2018-02-26T06:47:46.887Z,1980.00
2018-02-26T06:48:46.879Z,2000.00
2018-02-26T06:49:46.899Z,2056.00
2018-02-26T06:50:46.902Z,2164.00
2018-02-26T06:51:46.893Z,2144.00
2018-02-26T06:52:46.905Z,2200.00
2018-02-26T06:53:46.921Z,2288.00
2018-02-26T06:54:46.919Z,2444.00
2018-02-26T06:55:46.926Z,2616.00
2018-02-26T06:56:46.926Z,2700.00
2018-02-26T06:57:46.926Z,2744.00
2018-02-26T06:58:46.935Z,3088.00
2018-02-26T06:59:46.957Z,3292.00
2018-02-26T07:00:46.938Z,3640.00
2018-02-26T07:01:46.950Z,4164.00
2018-02-26T07:02:46.959Z,3984.00
2018-02-26T07:03:46.960Z,4008.00
2018-02-26T07:04:46.960Z,3808.00
2018-02-26T07:05:46.970Z,3192.00
2018-02-26T07:06:46.976Z,3116.00
2018-02-26T07:07:46.973Z,3432.00
2018-02-26T07:08:46.992Z,3108.00
2018-02-26T07:09:46.978Z,2740.00
2018-02-26T07:10:46.989Z,2948.00
2018-02-26T07:11:47.011Z,3280.00
2018-02-26T07:12:46.991Z,3976.00
2018-02-26T07:13:47.004Z,4364.00
2018-02-26T07:14:47.021Z,4240.00
2018-02-26T07:15:47.006Z,3844.00
2018-02-26T07:16:47.021Z,3852.00
2018-02-26T07:17:47.038Z,4324.00
2018-02-26T07:18:47.021Z,3472.00
2018-02-26T07:19:47.036Z,3096.00
2018-02-26T07:20:47.039Z,3204.00
2018-02-26T07:21:47.042Z,3156.00
2018-02-26T07:22:47.049Z,3368.00
2018-02-26T07:23:47.054Z,3540.00
2018-02-26T07:24:47.062Z,3696.00
2018-02-26T07:25:47.061Z,4016.00
2018-02-26T07:26:47.074Z,3820.00
2018-02-26T07:27:47.080Z,4404.00
2018-02-26T07:28:47.073Z,4916.00
2018-02-26T07:29:47.093Z,4976.00
2018-02-26T07:30:47.094Z,5224.00
2018-02-26T07:31:47.105Z,5192.00
2018-02-26T07:32:47.098Z,4576.00
2018-02-26T07:33:47.109Z,4100.00
2018-02-26T07:34:47.108Z,4124.00
2018-02-26T07:35:47.131Z,4748.00
2018-02-26T07:36:47.119Z,4924.00
2018-02-26T07:37:47.132Z,5000.00
2018-02-26T07:38:47.128Z,5612.00
2018-02-26T07:39:47.134Z,6064.00
2018-02-26T07:40:47.156Z,5664.00
2018-02-26T07:41:47.136Z,5428.00
2018-02-26T07:42:47.145Z,5640.00
2018-02-26T07:43:47.164Z,6948.00
2018-02-26T07:44:47.157Z,5936.00
2018-02-26T07:45:47.166Z,5824.00
2018-02-26T07:46:47.179Z,5548.00
2018-02-26T07:47:47.186Z,5816.00
2018-02-26T07:48:47.178Z,5544.00
2018-02-26T07:49:47.181Z,6864.00
2018-02-26T07:50:47.202Z,7204.00
2018-02-26T07:51:47.198Z,6156.00
2018-02-26T07:52:47.196Z,6920.00
2018-02-26T07:53:47.209Z,6892.00
2018-02-26T07:54:47.219Z,6036.00
2018-02-26T07:55:47.211Z,5092.00
2018-02-26T07:56:47.226Z,4964.00
2018-02-26T07:57:47.231Z,5648.00
2018-02-26T07:58:47.239Z,6600.00
2018-02-26T07:59:47.248Z,5580.00
2018-02-26T08:00:47.251Z,6680.00
2018-02-26T08:01:47.256Z,6068.00
2018-02-26T08:02:47.264Z,7732.00
2018-02-26T08:03:47.264Z,7868.00
2018-02-26T08:04:47.277Z,7456.00
2018-02-26T08:05:47.283Z,7624.00
2018-02-26T08:06:47.329Z,7596.00
2018-02-26T08:07:47.299Z,7828.00
2018-02-26T08:08:47.297Z,8556.00
2018-02-26T08:09:47.305Z,7080.00
2018-02-26T08:10:47.314Z,6924.00
2018-02-26T08:11:47.304Z,6924.00
2018-02-26T08:12:47.326Z,5656.00
2018-02-26T08:13:47.329Z,5208.00
2018-02-26T08:14:47.335Z,5060.00
2018-02-26T08:15:47.331Z,4984.00
2018-02-26T08:16:47.344Z,5540.00
2018-02-26T08:17:47.350Z,6588.00
2018-02-26T08:18:47.366Z,5484.00
2018-02-26T08:19:47.364Z,4240.00
2018-02-26T08:20:47.369Z,4576.00
2018-02-26T08:21:47.379Z,4520.00
2018-02-26T08:22:47.384Z,4272.00
2018-02-26T08:23:47.397Z,4468.00
2018-02-26T08:24:47.388Z,4488.00
2018-02-26T08:25:47.394Z,4564.00
2018-02-26T08:26:47.402Z,4556.00
2018-02-26T08:27:47.409Z,4964.00
2018-02-26T08:28:47.412Z,4588.00
2018-02-26T08:29:47.419Z,4800.00
2018-02-26T08:30:47.431Z,5056.00
2018-02-26T08:31:47.442Z,5388.00
2018-02-26T08:32:47.428Z,6112.00
2018-02-26T08:33:47.448Z,6528.00
2018-02-26T08:34:47.448Z,5796.00
2018-02-26T08:35:47.463Z,5296.00
2018-02-26T08:36:47.476Z,5144.00
2018-02-26T08:37:47.466Z,5152.00
2018-02-26T08:38:47.477Z,4600.00
2018-02-26T08:39:47.484Z,4752.00
2018-02-26T08:40:47.492Z,4992.00
2018-02-26T08:41:47.491Z,5072.00
2018-02-26T08:42:47.494Z,5332.00
2018-02-26T08:43:47.506Z,6088.00
2018-02-26T08:44:47.510Z,6360.00
2018-02-26T08:45:47.510Z,5772.00
2018-02-26T08:46:47.529Z,5296.00
2018-02-26T08:47:47.523Z,5092.00
2018-02-26T08:48:47.544Z,5240.00
2018-02-26T08:49:47.533Z,4936.00
2018-02-26T08:50:47.542Z,4924.00
2018-02-26T08:51:47.559Z,4712.00
2018-02-26T08:52:47.556Z,4756.00
2018-02-26T08:53:47.558Z,4856.00
2018-02-26T08:54:47.566Z,5260.00
2018-02-26T08:55:47.569Z,5672.00
2018-02-26T08:56:47.592Z,6152.00
2018-02-26T08:57:47.587Z,7292.00
2018-02-26T08:58:47.592Z,8412.00
2018-02-26T08:59:47.605Z,9448.00
2018-02-26T09:00:47.603Z,10148.00
2018-02-26T09:01:47.628Z,10992.00
2018-02-26T09:02:47.614Z,11492.00
2018-02-26T09:03:47.624Z,11884.00
2018-02-26T09:04:47.639Z,12768.00
2018-02-26T09:05:47.634Z,13424.00
2018-02-26T09:06:47.651Z,13860.00
2018-02-26T09:07:47.650Z,14212.00
2018-02-26T09:08:47.649Z,14156.00
2018-02-26T09:09:47.663Z,13784.00
2018-02-26T09:10:47.690Z,12868.00
2018-02-26T09:11:47.677Z,11908.00
2018-02-26T09:12:47.690Z,11816.00
2018-02-26T09:13:47.688Z,12456.00
2018-02-26T09:14:47.692Z,12392.00
2018-02-26T09:15:47.704Z,11972.00
2018-02-26T09:16:47.712Z,11716.00
2018-02-26T09:17:47.719Z,12096.00
2018-02-26T09:18:47.729Z,12032.00
2018-02-26T09:19:47.744Z,12440.00
2018-02-26T09:20:47.749Z,12928.00
2018-02-26T09:21:47.758Z,13416.00
2018-02-26T09:22:47.749Z,13544.00
2018-02-26T09:23:47.767Z,13580.00
2018-02-26T09:24:47.765Z,13500.00
2018-02-26T09:25:47.778Z,13476.00
2018-02-26T09:26:47.790Z,13284.00
2018-02-26T09:27:47.792Z,12804.00
2018-02-26T09:28:47.811Z,12488.00
2018-02-26T09:29:47.811Z,12160.00
2018-02-26T09:30:47.818Z,11648.00
2018-02-26T09:31:47.832Z,11424.00
2018-02-26T09:32:47.848Z,11072.00
2018-02-26T09:33:47.852Z,10808.00
2018-02-26T09:34:47.860Z,11044.00
2018-02-26T09:35:47.870Z,10716.00
2018-02-26T09:36:47.884Z,10044.00
2018-02-26T09:37:47.897Z,10244.00
2018-02-26T09:38:47.879Z,10620.00
2018-02-26T09:39:47.889Z,11452.00
2018-02-26T09:40:47.899Z,11856.00
2018-02-26T09:41:47.929Z,11236.00
2018-02-26T09:42:47.920Z,10376.00
2018-02-26T09:43:47.923Z,9856.00
2018-02-26T09:44:47.943Z,10748.00
2018-02-26T09:45:47.940Z,11460.00
2018-02-26T09:46:47.955Z,11704.00
2018-02-26T09:47:47.962Z,12392.00
2018-02-26T09:48:47.968Z,12132.00
2018-02-26T09:49:47.986Z,10976.00
2018-02-26T09:50:47.997Z,9788.00
2018-02-26T09:51:47.995Z,8824.00
2018-02-26T09:52:48.007Z,9572.00
2018-02-26T09:53:48.019Z,10664.00
2018-02-26T09:54:48.013Z,10420.00
2018-02-26T09:55:48.021Z,9528.00
2018-02-26T09:56:48.035Z,9324.00
2018-02-26T09:57:48.045Z,9296.00
2018-02-26T09:58:48.050Z,9016.00
2018-02-26T09:59:48.097Z,9592.00
2018-02-26T10:00:48.108Z,10284.00
2018-02-26T10:01:48.076Z,10816.00
2018-02-26T10:02:48.093Z,11984.00
2018-02-26T10:03:48.098Z,13272.00
2018-02-26T10:04:48.096Z,12988.00
2018-02-26T10:05:48.122Z,12696.00
2018-02-26T10:06:48.117Z,13084.00
2018-02-26T10:07:48.123Z,13992.00
2018-02-26T10:08:48.138Z,14276.00
2018-02-26T10:09:48.145Z,13856.00
2018-02-26T10:10:48.159Z,13520.00
2018-02-26T10:11:48.166Z,13580.00
2018-02-26T10:12:48.167Z,12672.00
2018-02-26T10:13:48.188Z,11232.00
2018-02-26T10:14:48.196Z,10832.00
2018-02-26T10:15:48.183Z,11648.00
2018-02-26T10:16:48.206Z,12960.00
2018-02-26T10:17:48.200Z,13352.00
2018-02-26T10:18:48.208Z,14948.00
2018-02-26T10:19:48.221Z,15736.00
2018-02-26T10:20:48.228Z,15308.00
2018-02-26T10:21:48.246Z,15272.00
2018-02-26T10:22:48.251Z,15480.00
2018-02-26T10:23:48.254Z,15576.00
2018-02-26T10:24:48.325Z,16100.00
2018-02-26T10:25:48.269Z,16536.00
2018-02-26T10:26:48.280Z,16668.00
2018-02-26T10:27:48.292Z,16444.00
2018-02-26T10:28:48.299Z,15156.00
2018-02-26T10:29:48.313Z,14868.00
2018-02-26T10:30:48.322Z,14948.00
2018-02-26T10:31:48.327Z,14448.00
2018-02-26T10:32:48.339Z,13524.00
2018-02-26T10:33:48.351Z,13396.00
2018-02-26T10:34:48.358Z,13620.00
2018-02-26T10:35:48.378Z,13504.00
2018-02-26T10:36:48.370Z,13060.00
2018-02-26T10:37:48.383Z,13288.00
2018-02-26T10:38:48.392Z,13284.00
2018-02-26T10:39:48.416Z,13260.00
2018-02-26T10:40:48.427Z,13852.00
2018-02-26T10:41:48.434Z,13392.00
2018-02-26T10:42:48.437Z,13132.00
2018-02-26T10:43:48.450Z,12448.00
2018-02-26T10:44:48.454Z,12940.00
2018-02-26T10:45:48.466Z,13096.00
2018-02-26T10:46:48.475Z,12728.00
2018-02-26T10:47:48.480Z,12904.00
2018-02-26T10:48:48.496Z,12688.00
2018-02-26T10:49:48.508Z,12580.00
2018-02-26T10:50:48.520Z,12208.00
2018-02-26T10:51:48.518Z,13740.00
2018-02-26T10:52:48.530Z,15184.00
2018-02-26T10:53:48.541Z,15136.00
2018-02-26T10:54:48.555Z,13764.00
2018-02-26T10:55:48.557Z,13536.00
2018-02-26T10:56:48.568Z,14284.00
2018-02-26T10:57:48.579Z,13724.00
2018-02-26T10:58:48.598Z,13020.00
2018-02-26T10:59:48.592Z,13728.00
2018-02-26T11:00:48.609Z,14920.00
2018-02-26T11:01:48.613Z,16460.00
2018-02-26T11:02:48.614Z,15316.00
2018-02-26T11:03:48.627Z,13608.00
2018-02-26T11:04:48.632Z,13468.00
2018-02-26T11:05:48.654Z,14084.00
2018-02-26T11:06:48.659Z,15280.00
2018-02-26T11:07:48.666Z,16552.00
2018-02-26T11:08:48.683Z,17472.00
2018-02-26T11:09:48.688Z,17632.00
2018-02-26T11:10:48.694Z,17256.00
2018-02-26T11:11:48.709Z,17132.00
2018-02-26T11:12:48.719Z,17252.00
2018-02-26T11:13:48.730Z,16424.00
2018-02-26T11:14:48.737Z,15904.00
2018-02-26T11:15:48.771Z,17760.00
2018-02-26T11:16:48.762Z,18560.00
2018-02-26T11:17:48.758Z,16852.00
2018-02-26T11:18:48.768Z,15724.00
2018-02-26T11:19:48.787Z,16672.00
2018-02-26T11:20:48.784Z,16924.00
2018-02-26T11:21:48.811Z,16824.00
2018-02-26T11:22:48.807Z,16556.00
2018-02-26T11:23:48.811Z,16304.00
2018-02-26T11:24:48.836Z,16436.00
2018-02-26T11:25:48.884Z,17092.00
2018-02-26T11:26:48.860Z,17664.00
2018-02-26T11:27:48.871Z,17728.00
2018-02-26T11:28:48.876Z,17632.00
2018-02-26T11:29:48.893Z,17632.00
2018-02-26T11:30:48.891Z,18240.00
2018-02-26T11:31:48.903Z,18496.00
2018-02-26T11:32:48.912Z,17984.00
2018-02-26T11:33:48.921Z,17792.00
2018-02-26T11:34:48.931Z,17504.00
2018-02-26T11:35:48.936Z,17568.00
2018-02-26T11:36:48.942Z,17376.00
2018-02-26T11:37:48.970Z,17148.00
2018-02-26T11:38:48.982Z,17472.00
2018-02-26T11:39:48.980Z,17664.00
2018-02-26T11:40:48.998Z,17888.00
2018-02-26T11:41:49.000Z,17792.00
2018-02-26T11:42:49.006Z,17152.00
2018-02-26T11:43:49.020Z,16688.00
2018-02-26T11:44:49.027Z,16128.00
2018-02-26T11:45:49.040Z,15484.00
2018-02-26T11:46:49.060Z,15128.00
2018-02-26T11:47:49.065Z,13524.00
2018-02-26T11:48:49.074Z,12076.00
2018-02-26T11:49:49.090Z,12700.00
2018-02-26T11:50:49.089Z,14508.00
2018-02-26T11:51:49.104Z,15612.00
2018-02-26T11:52:49.110Z,15632.00
2018-02-26T11:53:49.123Z,15716.00
2018-02-26T11:54:49.137Z,14272.00
2018-02-26T11:55:49.152Z,14392.00
2018-02-26T11:56:49.162Z,15724.00
2018-02-26T11:57:49.172Z,17664.00
2018-02-26T11:58:49.180Z,18240.00
2018-02-26T11:59:49.195Z,17048.00
2018-02-26T12:00:49.193Z,15448.00
2018-02-26T12:01:49.205Z,15484.00
2018-02-26T12:02:49.214Z,15392.00
2018-02-26T12:03:49.220Z,14832.00
2018-02-26T12:04:49.254Z,14024.00
2018-02-26T12:05:49.248Z,13836.00
2018-02-26T12:06:49.256Z,12968.00
2018-02-26T12:07:49.277Z,11388.00
2018-02-26T12:08:49.284Z,11368.00
2018-02-26T12:09:49.289Z,11016.00
2018-02-26T12:10:49.302Z,11168.00
2018-02-26T12:11:49.310Z,9068.00
2018-02-26T12:12:49.328Z,7168.00
2018-02-26T12:13:49.333Z,8160.00
2018-02-26T12:14:49.348Z,9768.00
2018-02-26T12:15:49.359Z,9864.00
2018-02-26T12:16:49.358Z,9236.00
2018-02-26T12:17:49.382Z,10024.00
2018-02-26T12:18:49.379Z,10880.00
2018-02-26T12:19:49.385Z,11288.00
2018-02-26T12:20:49.399Z,11676.00
2018-02-26T12:21:49.409Z,11640.00
2018-02-26T12:22:49.414Z,11788.00
2018-02-26T12:23:49.431Z,13364.00
2018-02-26T12:24:49.452Z,14392.00
2018-02-26T12:25:49.462Z,13856.00
2018-02-26T12:26:49.469Z,14240.00
2018-02-26T12:27:49.477Z,15296.00
2018-02-26T12:28:49.480Z,15704.00
2018-02-26T12:29:49.486Z,15572.00
2018-02-26T12:30:49.495Z,15952.00
2018-02-26T12:31:49.508Z,16024.00
2018-02-26T12:32:49.519Z,15520.00